Terminal Aerodrome Forecast
Issued by NWS Cleveland, OH

Home | Current Version | Previous Version | Text Only | Print | Product List | Glossary On
Versions: 1 2 3 4 5 6 7 8 9 10 11 12 13 14 15 16 17 18 19 20 21
000
FTUS41 KCLE 300900 AAA
TAFERI
TAF AMD
KERI 300946Z 3010/3106 32015G30KT 6SM -SHSN BR SCT006 OVC015
      TEMPO 3010/3014 2SM -SHSN OVC006
     FM301400 32014G24KT 6SM -SHSN SCT008 OVC015
     FM310000 32008KT P6SM SCT025 OVC035=

USA.gov is the U.S. government's official web portal to all federal, state and local government web resources and services.